Aviation Digital Data Service (ADDS)

Output produced by METARs form (2055 UTC 22 June 2018)
found at http://aviationweather.gov/adds/metars/
 
KJXN 221758Z 2218/2318 07010KT P6SM -SHRA SCT025 OVC050 
     TEMPO 2218/2222 2SM SHRA BR OVC018 
     FM222300 07009KT P6SM VCSH OVC015 
     FM230200 05006KT P6SM OVC007 
     FM230900 36003KT 3SM BR OVC003 
     FM231500 30006KT P6SM -SHRA BKN008